createdAt,value
2019-05-13T00:04:53.188Z,1033
2019-05-13T00:10:25.797Z,1032.9
2019-05-13T00:15:58.672Z,1032.9
2019-05-13T00:21:33.823Z,1032.8
2019-05-13T00:27:04.617Z,1032.9
2019-05-13T00:32:37.473Z,1032.9
2019-05-13T00:38:10.379Z,1032.8
2019-05-13T00:43:44.385Z,1032.7
2019-05-13T00:49:16.188Z,1032.6
2019-05-13T00:54:49.100Z,1032.5
2019-05-13T01:00:24.154Z,1032.5
2019-05-13T01:05:54.911Z,1032.6
2019-05-13T01:11:27.680Z,1032.6
2019-05-13T01:17:00.492Z,1032.6
2019-05-13T01:22:34.360Z,1032.6
2019-05-13T01:28:06.144Z,1032.5
2019-05-13T01:33:39.077Z,1032.4
2019-05-13T01:39:13.834Z,1032.4
2019-05-13T01:44:44.710Z,1032.4
2019-05-13T01:50:17.597Z,1032.4
2019-05-13T01:55:50.448Z,1032.3
2019-05-13T02:01:24.123Z,1032.3
2019-05-13T02:06:56.217Z,1032.3
2019-05-13T02:12:29.111Z,1032.1
2019-05-13T02:18:03.910Z,1032
2019-05-13T02:23:34.820Z,1032
2019-05-13T02:29:07.786Z,1032
2019-05-13T02:34:43.624Z,1032
2019-05-13T02:40:13.967Z,1032.1
2019-05-13T02:45:46.495Z,1032.1
2019-05-13T02:51:22.704Z,1032.1
2019-05-13T02:56:52.736Z,1032.2
2019-05-13T03:02:24.970Z,1032.1
2019-05-13T03:07:57.888Z,1032.1
2019-05-13T03:13:32.527Z,1032.2
2019-05-13T03:19:03.579Z,1032.2
2019-05-13T03:24:36.350Z,1032.2
2019-05-13T03:30:10.707Z,1032.3
2019-05-13T03:35:45.219Z,1032.3
2019-05-13T03:41:14.952Z,1032.4
2019-05-13T03:46:47.761Z,1032.4
2019-05-13T03:52:22.451Z,1032.3
2019-05-13T03:57:53.612Z,1032.2
2019-05-13T04:03:26.350Z,1032.2
2019-05-13T04:09:16.937Z,1032.3
2019-05-13T04:14:33.323Z,1032.4
2019-05-13T04:20:05.001Z,1032.4
2019-05-13T04:25:39.727Z,1032.2
2019-05-13T04:31:13.479Z,1032.2
2019-05-13T04:36:43.695Z,1032.1
2019-05-13T04:42:16.550Z,1032.1
2019-05-13T04:47:52.446Z,1031.9
2019-05-13T04:53:22.946Z,1031.7
2019-05-13T04:58:55.681Z,1031.8
2019-05-13T05:04:31.679Z,1031.7
2019-05-13T05:10:17.218Z,1031.5
2019-05-13T05:15:35.096Z,1031.3
2019-05-13T05:21:08.334Z,1031.3
2019-05-13T05:26:42.029Z,1031.2
2019-05-13T05:32:14.892Z,1031.2
2019-05-13T05:37:48.214Z,1031.3
2019-05-13T05:43:22.244Z,1031.3
2019-05-13T05:48:54.821Z,1031.4
2019-05-13T05:54:32.683Z,1031.4
2019-05-13T06:00:06.083Z,1031.3
2019-05-13T06:05:41.696Z,1031.2
2019-05-13T06:11:12.937Z,1031.4
2019-05-13T06:16:46.496Z,1031.3
2019-05-13T06:22:21.605Z,1031.2
2019-05-13T06:27:53.534Z,1031.1
2019-05-13T06:33:31.731Z,1030.8
2019-05-13T06:39:05.096Z,1031
2019-05-13T06:44:38.687Z,1030.9
2019-05-13T06:50:12.377Z,1030.7
2019-05-13T06:55:46.013Z,1030.8
2019-05-13T07:01:21.662Z,1030.7
2019-05-13T07:07:08.695Z,1030.5
2019-05-13T07:12:26.999Z,1030.7
2019-05-13T07:18:02.251Z,1030.6
2019-05-13T07:23:34.585Z,1030.5
2019-05-13T07:29:09.786Z,1030.5
2019-05-13T07:34:43.741Z,1030.5
2019-05-13T07:40:16.067Z,1030.6
2019-05-13T07:45:51.354Z,1030.6
2019-05-13T07:51:23.696Z,1030.5
2019-05-13T07:56:57.512Z,1030.5
2019-05-13T08:02:32.033Z,1030.5
2019-05-13T08:08:05.183Z,1030.3
2019-05-13T08:13:39.024Z,1030.4
2019-05-13T08:19:13.010Z,1030.4
2019-05-13T08:24:46.814Z,1030.5
2019-05-13T08:30:22.668Z,1030.3
2019-05-13T08:35:58.607Z,1030.3
2019-05-13T08:41:28.752Z,1030.4
2019-05-13T08:47:03.425Z,1030.2
2019-05-13T08:52:36.738Z,1030.3
2019-05-13T08:58:12.424Z,1029.8
2019-05-13T09:03:44.903Z,1029.8
2019-05-13T09:09:18.963Z,1029.9
2019-05-13T09:14:57.638Z,1030
2019-05-13T09:20:32.271Z,1029.8
2019-05-13T09:26:05.864Z,1029.8
2019-05-13T09:31:41.520Z,1029.4
2019-05-13T09:37:14.122Z,1029.5
2019-05-13T09:42:52.031Z,1029.4
2019-05-13T09:48:22.883Z,1029.9
2019-05-13T09:53:56.742Z,1029.6
2019-05-13T09:59:31.732Z,1029.4
2019-05-13T10:05:05.198Z,1029.5
2019-05-13T10:10:39.484Z,1029.5
2019-05-13T10:16:13.809Z,1029.6
2019-05-13T10:21:48.053Z,1029.6
2019-05-13T10:27:22.734Z,1029.2
2019-05-13T10:32:59.385Z,1029.4
2019-05-13T10:38:32.317Z,1028.9
2019-05-13T10:44:05.419Z,1029.2
2019-05-13T10:49:42.387Z,1029.1
2019-05-13T10:55:14.228Z,1029.1
2019-05-13T11:00:49.096Z,1029.2
2019-05-13T11:06:23.119Z,1029
2019-05-13T11:11:57.638Z,1028.9
2019-05-13T11:17:33.184Z,1029.2
2019-05-13T11:23:06.563Z,1028.9
2019-05-13T11:28:42.842Z,1029
2019-05-13T11:34:15.655Z,1029.2
2019-05-13T11:39:51.612Z,1029
2019-05-13T11:45:24.746Z,1029.1
2019-05-13T11:50:59.303Z,1029.5
2019-05-13T11:56:33.959Z,1029
2019-05-13T12:02:08.298Z,1029.3
2019-05-13T12:07:42.718Z,1029.2
2019-05-13T12:13:17.176Z,1029
2019-05-13T12:18:52.786Z,1029
2019-05-13T12:24:26.478Z,1029.1
2019-05-13T12:30:02.979Z,1029
2019-05-13T12:35:35.990Z,1029.1
2019-05-13T12:41:12.760Z,1029.4
2019-05-13T12:46:50.091Z,1028.9
2019-05-13T12:52:22.133Z,1029.4
2019-05-13T12:57:54.474Z,1029.4
2019-05-13T13:03:28.979Z,1029.3
2019-05-13T13:09:03.590Z,1029.2
2019-05-13T13:14:39.688Z,1029
2019-05-13T13:20:14.799Z,1029.1
2019-05-13T13:25:52.829Z,1028.9
2019-05-13T13:31:24.932Z,1029
2019-05-13T13:36:57.621Z,1029.2
2019-05-13T13:42:33.076Z,1029
2019-05-13T13:48:07.215Z,1029.2
2019-05-13T13:53:44.212Z,1029.3
2019-05-13T13:59:16.095Z,1029
2019-05-13T14:04:53.964Z,1029.4
2019-05-13T14:10:24.924Z,1028.8
2019-05-13T14:16:01.818Z,1029
2019-05-13T14:21:34.498Z,1029
2019-05-13T14:27:11.758Z,1028.7
2019-05-13T14:32:44.231Z,1028.6
2019-05-13T14:38:19.212Z,1028.5
2019-05-13T14:43:54.275Z,1028.4
2019-05-13T14:49:31.650Z,1028.5
2019-05-13T14:55:04.454Z,1028.4
2019-05-13T15:00:41.803Z,1028.8
2019-05-13T15:06:14.444Z,1028.4
2019-05-13T15:11:52.426Z,1028.7
2019-05-13T15:17:24.471Z,1028.6
2019-05-13T15:22:59.507Z,1028.4
2019-05-13T15:28:34.351Z,1029.2
2019-05-13T15:34:08.833Z,1029.3
2019-05-13T15:39:43.128Z,1029.5
2019-05-13T15:45:17.231Z,1029.8
2019-05-13T15:50:51.457Z,1029.7
2019-05-13T15:56:25.333Z,1029.1
2019-05-13T16:02:02.044Z,1028.9
2019-05-13T16:07:34.207Z,1029.2
2019-05-13T16:13:08.571Z,1029.4
2019-05-13T16:18:42.884Z,1029.6
2019-05-13T16:24:17.070Z,1029.4
2019-05-13T16:29:51.592Z,1029.7
2019-05-13T16:35:25.234Z,1029.6
2019-05-13T16:41:03.724Z,1029.7
2019-05-13T16:46:37.750Z,1029.5
2019-05-13T16:52:11.941Z,1029.6
2019-05-13T16:57:51.302Z,1029.3
2019-05-13T17:03:24.926Z,1029.4
2019-05-13T17:08:59.306Z,1029.4
2019-05-13T17:14:33.663Z,1029.5
2019-05-13T17:20:12.793Z,1029.8
2019-05-13T17:25:46.204Z,1030
2019-05-13T17:31:24.541Z,1030.1
2019-05-13T17:36:58.451Z,1029.9
2019-05-13T17:42:32.290Z,1030
2019-05-13T17:48:06.116Z,1030.2
2019-05-13T17:53:41.235Z,1030.2
2019-05-13T17:59:16.160Z,1030.1
2019-05-13T18:04:47.478Z,1030.1
2019-05-13T18:10:22.499Z,1029.9
2019-05-13T18:15:55.302Z,1030
2019-05-13T18:21:31.618Z,1030.2
2019-05-13T18:27:02.948Z,1030.3
2019-05-13T18:32:36.689Z,1030.4
2019-05-13T18:38:11.898Z,1030.5
2019-05-13T18:43:43.886Z,1030.7
2019-05-13T18:49:17.398Z,1030.8
2019-05-13T18:54:51.349Z,1030.9
2019-05-13T19:00:24.211Z,1031
2019-05-13T19:05:57.612Z,1030.8
2019-05-13T19:11:31.687Z,1031
2019-05-13T19:17:04.265Z,1031.2
2019-05-13T19:22:37.545Z,1031.3
2019-05-13T19:28:11.804Z,1031.4
2019-05-13T19:33:43.861Z,1031.4
2019-05-13T19:39:17.040Z,1031.3
2019-05-13T19:44:51.120Z,1031.2
2019-05-13T19:50:23.285Z,1031.4
2019-05-13T19:55:56.302Z,1031.4
2019-05-13T20:01:29.358Z,1031.4
2019-05-13T20:07:02.471Z,1031.2
2019-05-13T20:12:35.513Z,1031.3
2019-05-13T20:18:08.553Z,1031.3
2019-05-13T20:23:41.667Z,1031.4
2019-05-13T20:29:14.734Z,1031.4
2019-05-13T20:34:47.758Z,1031.4
2019-05-13T20:40:22.016Z,1031.3
2019-05-13T20:45:53.676Z,1031.2
2019-05-13T20:51:26.712Z,1031.3
2019-05-13T20:57:01.754Z,1031.3
2019-05-13T21:02:32.671Z,1031.4
2019-05-13T21:08:05.626Z,1031.4
2019-05-13T21:13:38.506Z,1031.2
2019-05-13T21:19:12.353Z,1031.2
2019-05-13T21:24:44.283Z,1031.2
2019-05-13T21:30:17.231Z,1031.2
2019-05-13T21:35:51.084Z,1031
2019-05-13T21:41:23.068Z,1031
2019-05-13T21:46:55.993Z,1030.8
2019-05-13T21:52:28.924Z,1030.6
2019-05-13T21:58:03.242Z,1030.6
2019-05-13T22:03:34.902Z,1030.6
2019-05-13T22:09:07.896Z,1030.6
2019-05-13T22:14:41.244Z,1030.4
2019-05-13T22:20:13.819Z,1030.4
2019-05-13T22:25:48.114Z,1030.4
2019-05-13T22:31:22.047Z,1030.4
2019-05-13T22:36:52.754Z,1030.3
2019-05-13T22:42:25.704Z,1030.2
2019-05-13T22:47:58.727Z,1030
2019-05-13T22:53:32.032Z,1030
2019-05-13T22:59:04.554Z,1030
2019-05-13T23:04:37.479Z,1029.9
2019-05-13T23:10:11.770Z,1029.9
2019-05-13T23:15:43.509Z,1029.9
2019-05-13T23:21:16.505Z,1030
2019-05-13T23:26:51.499Z,1029.8
2019-05-13T23:32:22.523Z,1029.7
2019-05-13T23:37:55.635Z,1029.6
2019-05-13T23:43:30.890Z,1029.6
2019-05-13T23:49:01.637Z,1029.6
2019-05-13T23:54:34.735Z,1029.6
